Time;durP1;ratioP1;P1;durP2;ratioP2;P2;SDS_P1;SDS_P2;PMS_P1;PMS_P2;Temp;Humidity;BMP_temperature;BMP_pressure;BME280_temperature;BME280_humidity;BME280_pressure;Samples;Min_cycle;Max_cycle;Signal;HPM_P1;HPM_P2
2021/09/15 00:02:07;;;;;;;14.40;5.03;;;;;;;14.10;100.00;100377.22;5075761;28;20048;-88
2021/09/15 00:04:32;;;;;;;16.73;5.72;;;;;;;14.09;100.00;100369.44;5057570;28;20115;-88
2021/09/15 00:06:58;;;;;;;9.25;5.40;;;;;;;14.02;100.00;100369.66;5075454;28;20041;-87
2021/09/15 00:09:23;;;;;;;9.57;5.55;;;;;;;14.03;100.00;100368.75;5075664;28;20107;-87
2021/09/15 00:11:48;;;;;;;10.07;5.03;;;;;;;14.02;100.00;100364.44;5057568;28;20364;-87
2021/09/15 00:14:14;;;;;;;9.07;5.55;;;;;;;14.03;100.00;100362.69;5057611;28;20013;-87
2021/09/15 00:16:39;;;;;;;7.82;5.25;;;;;;;14.01;100.00;100361.91;5057616;28;20056;-87
2021/09/15 00:19:04;;;;;;;8.65;5.45;;;;;;;14.01;100.00;100357.53;5075338;28;20021;-88
2021/09/15 00:21:30;;;;;;;10.82;5.35;;;;;;;14.02;100.00;100345.34;5057515;28;20066;-88
2021/09/15 00:23:55;;;;;;;7.97;5.10;;;;;;;14.05;100.00;100342.63;5075274;28;20032;-88
2021/09/15 00:26:20;;;;;;;9.05;5.07;;;;;;;14.03;100.00;100349.63;5057323;28;20056;-88
2021/09/15 00:28:46;;;;;;;9.70;5.28;;;;;;;14.03;100.00;100345.28;5075317;28;20094;-88
2021/09/15 00:31:11;;;;;;;8.90;5.20;;;;;;;14.04;100.00;100340.94;5075160;28;20031;-88
2021/09/15 00:33:36;;;;;;;9.13;5.28;;;;;;;14.07;100.00;100339.94;5057352;28;20024;-88
2021/09/15 00:36:01;;;;;;;10.52;6.05;;;;;;;14.02;100.00;100340.97;5057153;28;20071;-88
2021/09/15 00:38:27;;;;;;;9.13;5.10;;;;;;;14.04;100.00;100339.16;5057194;28;20130;-88
2021/09/15 00:40:52;;;;;;;8.95;4.65;;;;;;;14.05;100.00;100329.59;5075278;28;20032;-88
2021/09/15 00:43:17;;;;;;;9.63;5.45;;;;;;;14.10;100.00;100329.41;5058258;28;20055;-88
2021/09/15 00:45:42;;;;;;;9.38;5.03;;;;;;;14.09;100.00;100320.72;5074777;28;20025;-88
2021/09/15 00:48:08;;;;;;;10.48;5.07;;;;;;;14.05;100.00;100324.38;5056977;28;20020;-88
2021/09/15 00:50:33;;;;;;;11.27;5.22;;;;;;;14.02;100.00;100322.72;5056916;28;20028;-88
2021/09/15 00:53:00;;;;;;;8.50;4.63;;;;;;;14.02;100.00;100320.09;5074766;28;20031;-88
2021/09/15 00:55:26;;;;;;;9.05;5.15;;;;;;;14.05;100.00;100320.00;5074797;28;20027;-88
2021/09/15 00:57:51;;;;;;;9.00;4.50;;;;;;;14.03;100.00;100324.41;5056731;28;20435;-89
2021/09/15 01:00:17;;;;;;;8.95;5.43;;;;;;;14.03;100.00;100310.53;5056850;28;20387;-89
2021/09/15 01:02:42;;;;;;;11.52;5.25;;;;;;;14.04;100.00;100318.31;5056599;28;20032;-88
2021/09/15 01:05:08;;;;;;;10.45;5.18;;;;;;;14.02;100.00;100316.66;5055611;28;20111;-88
2021/09/15 01:07:34;;;;;;;11.00;5.20;;;;;;;14.03;100.00;100308.75;5074466;28;20124;-89
2021/09/15 01:10:00;;;;;;;9.82;4.70;;;;;;;14.03;100.00;100308.75;5056554;28;20058;-89
2021/09/15 01:12:26;;;;;;;8.93;4.63;;;;;;;14.01;100.00;100299.31;5074452;28;20492;-89
2021/09/15 01:14:51;;;;;;;10.73;4.47;;;;;;;14.01;100.00;100297.56;5074311;28;20090;-89
2021/09/15 01:17:17;;;;;;;12.00;5.43;;;;;;;13.97;100.00;100298.56;5056649;28;20503;-88
2021/09/15 01:19:42;;;;;;;8.85;5.05;;;;;;;14.00;100.00;100292.38;5056240;28;20070;-88
2021/09/15 01:22:08;;;;;;;10.50;5.45;;;;;;;13.98;100.00;100289.84;5056414;28;20024;-88
2021/09/15 01:24:33;;;;;;;12.18;5.30;;;;;;;13.98;100.00;100300.28;5056323;28;20047;-88
2021/09/15 01:26:59;;;;;;;11.13;5.18;;;;;;;13.99;100.00;100306.34;5056190;28;20044;-88
2021/09/15 01:29:27;;;;;;;9.90;5.30;;;;;;;13.98;100.00;100308.09;5056188;28;20021;-88
2021/09/15 01:32:00;;;;;;;8.80;5.13;;;;;;;13.93;100.00;100304.78;5056104;28;20396;-88
2021/09/15 01:34:26;;;;;;;10.95;4.50;;;;;;;13.96;100.00;100302.06;5056007;28;20044;-88
2021/09/15 01:36:52;;;;;;;7.25;4.50;;;;;;;13.95;100.00;100305.59;5056341;28;20070;-89
2021/09/15 01:39:17;;;;;;;7.75;4.60;;;;;;;13.94;100.00;100308.25;5055957;28;20430;-89
2021/09/15 01:41:43;;;;;;;9.32;4.97;;;;;;;13.89;100.00;100307.59;5056051;28;20380;-88
2021/09/15 01:44:08;;;;;;;10.65;4.97;;;;;;;13.90;100.00;100304.91;5073921;28;20035;-88
2021/09/15 01:46:33;;;;;;;8.63;4.80;;;;;;;13.90;100.00;100296.25;5055886;28;20087;-89
2021/09/15 01:48:58;;;;;;;8.38;4.82;;;;;;;13.88;100.00;100295.44;5055649;28;20085;-88
2021/09/15 01:51:24;;;;;;;9.15;5.40;;;;;;;13.87;100.00;100297.19;5073670;28;20032;-88
2021/09/15 01:53:49;;;;;;;10.55;5.22;;;;;;;13.87;100.00;100291.97;5073704;28;20400;-89
2021/09/15 01:56:15;;;;;;;7.38;4.45;;;;;;;13.85;100.00;100291.19;5073594;28;20028;-89
2021/09/15 01:58:40;;;;;;;9.23;5.28;;;;;;;13.83;100.00;100285.19;5055873;28;20107;-89
2021/09/15 02:01:05;;;;;;;9.05;4.47;;;;;;;13.82;100.00;100286.06;5055639;28;20028;-89
2021/09/15 02:03:31;;;;;;;9.82;5.13;;;;;;;13.86;100.00;100281.63;5073559;28;20020;-88
2021/09/15 02:05:56;;;;;;;11.27;5.07;;;;;;;13.85;100.00;100282.50;5055408;28;20057;-88
2021/09/15 02:08:21;;;;;;;9.80;4.93;;;;;;;13.81;100.00;100281.78;5073334;28;20028;-88
2021/09/15 02:10:46;;;;;;;11.05;5.35;;;;;;;13.80;100.00;100280.09;5055456;28;20084;-88
2021/09/15 02:13:12;;;;;;;8.90;4.97;;;;;;;13.77;100.00;100282.81;5073600;28;20484;-88
2021/09/15 02:15:37;;;;;;;9.05;5.07;;;;;;;13.75;100.00;100282.84;5073001;28;20028;-88
2021/09/15 02:18:02;;;;;;;7.72;4.57;;;;;;;13.76;100.00;100278.47;5055405;28;20027;-88
2021/09/15 02:20:28;;;;;;;7.20;4.65;;;;;;;13.75;100.00;100276.78;5073769;28;20020;-89
2021/09/15 02:22:53;;;;;;;10.88;5.50;;;;;;;13.77;100.00;100269.75;5055323;28;20042;-88
2021/09/15 02:25:19;;;;;;;8.52;4.85;;;;;;;13.75;100.00;100274.16;5055640;28;20496;-88
2021/09/15 02:27:44;;;;;;;10.85;5.03;;;;;;;13.77;100.00;100269.75;5055230;28;20024;-88
2021/09/15 02:30:10;;;;;;;10.48;4.55;;;;;;;13.78;100.00;100266.25;5055285;28;20024;-88
2021/09/15 02:32:35;;;;;;;12.20;5.18;;;;;;;13.76;100.00;100271.53;5055191;28;20389;-88
2021/09/15 02:35:00;;;;;;;10.68;5.22;;;;;;;13.75;100.00;100272.41;5055066;28;20021;-88
2021/09/15 02:37:26;;;;;;;10.00;5.22;;;;;;;13.72;100.00;100263.84;5055028;28;20477;-89
2021/09/15 02:39:51;;;;;;;9.27;4.82;;;;;;;13.69;100.00;100270.03;5073094;28;20032;-89
2021/09/15 02:42:17;;;;;;;9.35;5.00;;;;;;;13.68;100.00;100270.09;5055309;28;20064;-89
2021/09/15 02:44:42;;;;;;;11.60;6.25;;;;;;;13.64;100.00;100264.16;5055062;28;20111;-89
2021/09/15 02:47:07;;;;;;;24.02;5.80;;;;;;;13.60;100.00;100280.78;5072953;28;20039;-89
2021/09/15 02:49:32;;;;;;;11.02;6.00;;;;;;;13.55;100.00;100280.94;5055168;28;20388;-89
2021/09/15 02:51:58;;;;;;;9.77;6.38;;;;;;;13.52;100.00;100275.84;5055108;28;20024;-89
2021/09/15 02:54:23;;;;;;;8.93;5.53;;;;;;;13.52;100.00;100273.25;5073193;28;20031;-90
2021/09/15 02:56:48;;;;;;;8.77;5.15;;;;;;;13.50;100.00;100272.44;5054914;28;20048;-89
2021/09/15 02:59:13;;;;;;;9.95;5.88;;;;;;;13.53;100.00;100268.88;5055394;28;20047;-89
2021/09/15 03:01:39;;;;;;;9.57;6.13;;;;;;;13.49;100.00;100262.94;5055089;28;20115;-89
2021/09/15 03:04:04;;;;;;;11.68;6.28;;;;;;;13.44;100.00;100262.22;5054972;28;20081;-89
2021/09/15 03:06:30;;;;;;;11.45;5.65;;;;;;;13.39;100.00;100253.72;5073357;28;20027;-89
2021/09/15 03:08:55;;;;;;;11.73;5.60;;;;;;;13.36;100.00;100246.00;5055011;28;20443;-89
2021/09/15 03:11:20;;;;;;;10.02;5.22;;;;;;;13.33;100.00;100243.50;5072856;28;20027;-89
2021/09/15 03:13:46;;;;;;;10.45;6.70;;;;;;;13.32;100.00;100262.66;5072678;28;20028;-89
2021/09/15 03:16:12;;;;;;;10.43;6.53;;;;;;;13.35;100.00;100266.00;5073005;28;20021;-89
2021/09/15 03:18:38;;;;;;;11.30;6.03;;;;;;;13.36;100.00;100269.44;5054841;28;20048;-89
2021/09/15 03:21:03;;;;;;;14.63;6.60;;;;;;;13.29;100.00;100257.53;5054890;28;20121;-89
2021/09/15 03:23:28;;;;;;;9.13;6.18;;;;;;;13.27;100.00;100257.63;5054757;28;20028;-88
2021/09/15 03:25:54;;;;;;;12.85;6.25;;;;;;;13.27;100.00;100265.44;5054596;28;20492;-89
2021/09/15 03:28:19;;;;;;;10.25;6.05;;;;;;;13.23;100.00;100252.50;5075184;28;20035;-89
2021/09/15 03:30:44;;;;;;;9.95;6.18;;;;;;;13.21;100.00;100254.31;5058944;28;20143;-89
2021/09/15 03:33:09;;;;;;;13.25;6.15;;;;;;;13.17;100.00;100250.97;5058460;28;20047;-88
2021/09/15 03:35:35;;;;;;;10.05;6.05;;;;;;;13.16;100.00;100245.81;5058283;28;20455;-89
2021/09/15 03:38:00;;;;;;;11.68;6.93;;;;;;;13.14;100.00;100238.88;5058204;28;20020;-88
2021/09/15 03:40:25;;;;;;;10.73;6.70;;;;;;;13.09;100.00;100235.59;5058378;28;20017;-88
2021/09/15 03:42:51;;;;;;;12.75;6.60;;;;;;;13.10;100.00;100226.88;5058415;28;20210;-88
2021/09/15 03:45:16;;;;;;;9.82;6.43;;;;;;;13.11;100.00;100228.56;5058083;28;20035;-88
2021/09/15 03:47:41;;;;;;;12.50;6.55;;;;;;;13.12;100.00;100229.47;5058046;28;20036;-88
2021/09/15 03:50:07;;;;;;;14.38;5.78;;;;;;;13.13;100.00;100225.94;5058107;28;20396;-88
2021/09/15 03:52:33;;;;;;;9.88;6.78;;;;;;;13.12;100.00;100227.69;5058021;28;20020;-88
2021/09/15 03:54:58;;;;;;;12.23;7.93;;;;;;;13.16;100.00;100219.78;5058021;28;20163;-88
2021/09/15 03:57:23;;;;;;;11.70;6.47;;;;;;;13.16;100.00;100198.94;5057767;28;20052;-88
2021/09/15 03:59:49;;;;;;;9.48;6.00;;;;;;;13.18;100.00;100208.41;5057867;28;20028;-88
2021/09/15 04:02:14;;;;;;;13.38;6.88;;;;;;;13.19;100.00;100209.25;5075743;28;20028;-88
2021/09/15 04:04:39;;;;;;;10.90;6.70;;;;;;;13.16;100.00;100210.22;5057801;28;20029;-88
2021/09/15 04:07:04;;;;;;;14.07;6.85;;;;;;;13.16;100.00;100206.75;5075667;28;20024;-88
2021/09/15 04:09:30;;;;;;;14.43;7.55;;;;;;;13.12;100.00;100206.88;5080674;23;20052;-85
2021/09/15 04:11:55;;;;;;;11.40;7.75;;;;;;;13.13;100.00;100205.94;5062354;28;20021;-84
2021/09/15 04:14:22;;;;;;;13.05;8.13;;;;;;;13.11;100.00;100206.91;5083517;28;20025;-84
2021/09/15 04:16:48;;;;;;;12.77;7.63;;;;;;;13.09;100.00;100208.72;5058835;28;20040;-84
2021/09/15 04:19:13;;;;;;;12.27;7.63;;;;;;;13.09;100.00;100213.94;5059444;28;20024;-83
2021/09/15 04:21:40;;;;;;;11.50;6.68;;;;;;;13.04;100.00;100203.66;5058470;28;20046;-84
2021/09/15 04:24:26;;;;;;;11.73;7.18;;;;;;;13.04;100.00;100210.63;5058446;28;20028;-84
2021/09/15 04:32:20;;;;;;;15.95;6.90;;;;;;;12.94;100.00;100207.50;5076204;28;20116;-84
2021/09/15 04:34:45;;;;;;;10.73;7.57;;;;;;;12.94;100.00;100204.88;5075981;28;20048;-84
2021/09/15 04:37:10;;;;;;;11.82;6.82;;;;;;;12.92;100.00;100191.06;5058045;28;20114;-84
2021/09/15 04:39:35;;;;;;;12.35;7.28;;;;;;;12.93;100.00;100191.91;5057832;28;20028;-84
2021/09/15 04:42:01;;;;;;;14.18;7.78;;;;;;;12.90;100.00;100195.50;5058124;28;20021;-85
2021/09/15 04:44:26;;;;;;;11.52;7.35;;;;;;;12.92;100.00;100191.06;5057488;28;20369;-85
2021/09/15 04:46:51;;;;;;;12.75;7.43;;;;;;;12.92;100.00;100180.66;5057612;28;20054;-85
2021/09/15 04:49:17;;;;;;;12.05;7.78;;;;;;;12.93;100.00;100177.16;5057328;28;20040;-85
2021/09/15 04:51:42;;;;;;;11.07;7.25;;;;;;;12.93;100.00;100177.16;5057669;28;20549;-85
2021/09/15 04:54:07;;;;;;;11.48;7.60;;;;;;;12.95;100.00;100164.94;5058916;28;20023;-86
2021/09/15 04:56:32;;;;;;;15.05;7.53;;;;;;;12.97;100.00;100165.72;5057431;28;20480;-86
2021/09/15 04:58:58;;;;;;;11.57;8.02;;;;;;;12.98;100.00;100167.44;5057201;28;20032;-86
2021/09/15 05:01:23;;;;;;;21.40;7.43;;;;;;;12.97;100.00;100160.53;5075086;28;20377;-86
2021/09/15 05:03:48;;;;;;;12.93;8.10;;;;;;;12.94;100.00;100167.59;5057405;28;20107;-86
2021/09/15 05:06:13;;;;;;;12.23;6.68;;;;;;;12.94;100.00;100162.38;5057739;28;20025;-86
2021/09/15 05:08:39;;;;;;;14.57;7.75;;;;;;;12.95;100.00;100164.94;5057074;28;20039;-86
2021/09/15 05:11:04;;;;;;;11.20;7.93;;;;;;;12.96;100.00;100161.44;5075251;28;20028;-86
2021/09/15 05:13:29;;;;;;;15.43;8.50;;;;;;;12.97;100.00;100167.50;5057085;28;20020;-87
2021/09/15 05:15:54;;;;;;;16.25;7.13;;;;;;;12.98;100.00;100170.03;5056885;28;20477;-86
2021/09/15 05:18:20;;;;;;;13.43;8.55;;;;;;;12.99;100.00;100166.53;5074714;28;20035;-87
2021/09/15 05:20:45;;;;;;;14.85;8.02;;;;;;;13.01;100.00;100159.50;5056810;28;20021;-87
2021/09/15 05:23:10;;;;;;;16.08;7.97;;;;;;;13.04;100.00;100163.75;5056961;28;20032;-86
2021/09/15 05:25:36;;;;;;;14.48;7.95;;;;;;;13.05;100.00;100168.94;5056798;28;20036;-86
2021/09/15 05:28:01;;;;;;;11.88;8.10;;;;;;;13.08;100.00;100166.22;5057068;28;20028;-86
2021/09/15 05:30:27;;;;;;;12.18;8.07;;;;;;;13.10;100.00;100167.00;5057131;28;20043;-85
2021/09/15 05:32:52;;;;;;;16.35;8.50;;;;;;;13.13;100.00;100174.69;5056923;28;20593;-85
2021/09/15 05:35:17;;;;;;;13.60;8.77;;;;;;;13.11;100.00;100167.84;5057152;28;20020;-84
2021/09/15 05:37:45;;;;;;;13.15;8.57;;;;;;;13.11;100.00;100170.44;5057381;28;20039;-84
2021/09/15 05:40:11;;;;;;;13.98;7.93;;;;;;;13.17;100.00;100166.78;5057413;28;20025;-84
2021/09/15 05:42:36;;;;;;;11.07;7.68;;;;;;;13.24;100.00;100169.13;5056986;28;20020;-84
2021/09/15 05:45:03;;;;;;;11.98;7.07;;;;;;;13.24;100.00;100171.75;5056997;28;20374;-84
2021/09/15 05:47:30;;;;;;;14.85;7.10;;;;;;;13.13;100.00;100172.09;5061246;28;20105;-84
2021/09/15 05:49:56;;;;;;;12.15;7.38;;;;;;;13.17;100.00;100162.41;5056141;28;20048;-84
2021/09/15 05:52:21;;;;;;;12.68;7.90;;;;;;;13.17;100.00;100161.56;5074946;28;20550;-84
2021/09/15 05:54:46;;;;;;;15.93;7.47;;;;;;;13.16;100.00;100154.69;5056424;28;20021;-85
2021/09/15 05:57:12;;;;;;;11.30;7.30;;;;;;;13.20;100.00;100158.88;5056294;28;20028;-86
2021/09/15 05:59:37;;;;;;;11.55;8.32;;;;;;;13.26;100.00;100158.69;5056395;28;20024;-86
2021/09/15 06:02:02;;;;;;;13.43;8.23;;;;;;;13.25;100.00;100157.00;5074357;28;20036;-85
2021/09/15 06:04:28;;;;;;;15.57;9.18;;;;;;;13.27;100.00;100152.56;5055926;28;20027;-85
2021/09/15 06:06:53;;;;;;;15.57;9.40;;;;;;;13.32;100.00;100145.44;5056730;28;20434;-84
2021/09/15 06:09:18;;;;;;;14.32;7.85;;;;;;;13.30;100.00;100155.94;5058029;28;20043;-84
2021/09/15 06:11:44;;;;;;;13.85;8.38;;;;;;;13.38;100.00;100149.59;5057622;28;20098;-84
2021/09/15 06:14:09;;;;;;;13.00;8.63;;;;;;;13.37;100.00;100155.72;5058006;28;20040;-84
2021/09/15 06:16:34;;;;;;;12.93;8.82;;;;;;;13.38;100.00;100158.25;5057744;28;20476;-84
2021/09/15 06:18:59;;;;;;;14.55;8.77;;;;;;;13.38;100.00;100153.03;5060713;28;20032;-84
2021/09/15 06:21:25;;;;;;;12.60;7.82;;;;;;;13.36;100.00;100152.22;5081140;28;20017;-85
2021/09/15 06:23:52;;;;;;;15.60;8.10;;;;;;;13.40;100.00;100147.78;5069203;28;20028;-84
2021/09/15 06:26:18;;;;;;;16.38;8.88;;;;;;;13.45;100.00;100143.22;5056329;28;20029;-84
2021/09/15 06:28:43;;;;;;;13.70;8.57;;;;;;;13.45;100.00;100138.03;5073742;28;20093;-84
2021/09/15 06:31:08;;;;;;;14.07;8.65;;;;;;;13.45;100.00;100145.84;5056800;28;20526;-84
2021/09/15 06:33:34;;;;;;;11.45;7.82;;;;;;;13.44;100.00;100147.59;5055959;28;20530;-84
2021/09/15 06:35:59;;;;;;;12.98;7.57;;;;;;;13.45;100.00;100149.28;5055702;28;20158;-84
2021/09/15 06:38:25;;;;;;;16.77;8.00;;;;;;;13.48;100.00;100151.78;5056042;28;20024;-84
2021/09/15 06:40:51;;;;;;;10.15;7.30;;;;;;;13.48;100.00;100153.53;5055705;28;20151;-84
2021/09/15 06:43:16;;;;;;;13.07;8.18;;;;;;;13.52;100.00;100156.00;5055733;28;20024;-84
2021/09/15 06:45:42;;;;;;;12.20;8.88;;;;;;;13.53;100.00;100162.88;5055787;28;20017;-84
2021/09/15 06:48:07;;;;;;;16.10;9.02;;;;;;;13.57;100.00;100163.63;5055642;28;20052;-84
2021/09/15 06:50:32;;;;;;;12.90;8.55;;;;;;;13.71;100.00;100176.16;5056208;28;20134;-84
2021/09/15 06:52:57;;;;;;;32.70;11.25;;;;;;;13.87;100.00;100186.84;5056880;28;20025;-84
2021/09/15 06:55:23;;;;;;;28.02;11.52;;;;;;;13.92;100.00;100182.31;5058650;28;20028;-84
2021/09/15 06:57:49;;;;;;;18.10;9.50;;;;;;;14.01;100.00;100179.38;5059589;28;20070;-84
2021/09/15 07:00:14;;;;;;;16.10;9.27;;;;;;;13.91;100.00;100173.63;5059914;28;20476;-84
2021/09/15 07:02:40;;;;;;;12.60;8.32;;;;;;;13.85;100.00;100168.66;5063750;28;20087;-84
2021/09/15 07:05:06;;;;;;;21.15;10.05;;;;;;;13.87;100.00;100179.03;5063144;28;20074;-84
2021/09/15 07:07:31;;;;;;;18.20;10.55;;;;;;;13.89;100.00;100175.47;5062115;28;20512;-84
2021/09/15 07:09:56;;;;;;;13.25;9.05;;;;;;;13.88;100.00;100178.13;5062536;28;20028;-85
2021/09/15 07:12:22;;;;;;;19.90;8.40;;;;;;;13.93;100.00;100169.22;5060614;28;20050;-85
2021/09/15 07:14:47;;;;;;;17.70;8.05;;;;;;;13.89;100.00;100162.44;5077794;28;20050;-85
2021/09/15 07:17:13;;;;;;;13.70;9.23;;;;;;;13.94;100.00;100175.28;5060598;28;20021;-85
2021/09/15 07:19:38;;;;;;;12.38;8.75;;;;;;;13.94;100.00;100168.28;5060860;28;20021;-85
2021/09/15 07:22:03;;;;;;;14.30;10.07;;;;;;;13.95;100.00;100167.41;5065883;28;20033;-84
2021/09/15 07:24:29;;;;;;;15.30;8.55;;;;;;;13.97;100.00;100162.97;5060080;28;20027;-84
2021/09/15 07:26:54;;;;;;;11.85;8.23;;;;;;;14.04;100.00;100156.63;5059347;28;20068;-84
2021/09/15 07:29:20;;;;;;;14.82;9.35;;;;;;;14.05;100.00;100160.91;5059255;28;20100;-85
2021/09/15 07:31:45;;;;;;;11.70;8.40;;;;;;;14.00;100.00;100162.00;5076985;28;20427;-85
2021/09/15 07:34:10;;;;;;;13.65;8.50;;;;;;;14.08;100.00;100166.94;5059855;28;20013;-85
2021/09/15 07:36:36;;;;;;;14.05;8.85;;;;;;;14.07;100.00;100160.00;5059473;28;20028;-85
2021/09/15 07:39:03;;;;;;;13.70;9.25;;;;;;;14.10;100.00;100162.50;5058706;28;20028;-85
2021/09/15 07:41:29;;;;;;;14.27;8.23;;;;;;;14.12;100.00;100166.75;5076837;28;20039;-85
2021/09/15 07:43:54;;;;;;;12.20;9.05;;;;;;;14.13;100.00;100164.97;5058742;28;20021;-85
2021/09/15 07:46:23;;;;;;;13.65;8.60;;;;;;;14.07;100.00;100160.88;5058755;28;20028;-85
2021/09/15 07:48:49;;;;;;;14.18;7.82;;;;;;;14.03;100.00;100167.94;5058678;28;20082;-86
2021/09/15 07:51:15;;;;;;;13.15;8.55;;;;;;;14.05;100.00;100173.97;5058894;28;20107;-85
2021/09/15 07:53:40;;;;;;;14.13;9.05;;;;;;;14.10;100.00;100175.53;5058852;28;20020;-85
2021/09/15 07:56:06;;;;;;;12.38;9.07;;;;;;;14.16;100.00;100177.91;5076660;28;20381;-85
2021/09/15 07:58:31;;;;;;;16.90;8.52;;;;;;;14.15;100.00;100174.44;5076681;28;20028;-86
2021/09/15 08:00:56;;;;;;;14.73;9.30;;;;;;;14.13;100.00;100172.81;5058768;28;20025;-86
2021/09/15 08:03:21;;;;;;;14.27;9.30;;;;;;;14.14;100.00;100171.91;5058636;28;20385;-86
2021/09/15 08:05:47;;;;;;;13.73;9.15;;;;;;;14.25;100.00;100177.53;5058546;28;20021;-86
2021/09/15 08:08:12;;;;;;;14.02;8.43;;;;;;;14.38;100.00;100180.53;5058242;28;20047;-86
2021/09/15 08:10:39;;;;;;;15.10;8.55;;;;;;;14.56;100.00;100182.41;5058400;28;20392;-86
2021/09/15 08:13:04;;;;;;;12.65;9.00;;;;;;;14.64;100.00;100182.94;5058055;28;20024;-86
2021/09/15 08:15:30;;;;;;;12.95;9.80;;;;;;;14.79;100.00;100184.09;5058385;28;20043;-86
2021/09/15 08:17:56;;;;;;;13.57;8.68;;;;;;;14.91;100.00;100188.78;5059075;28;20484;-86
2021/09/15 08:20:21;;;;;;;13.25;9.68;;;;;;;14.87;100.00;100191.59;5076359;28;20024;-86
2021/09/15 08:22:46;;;;;;;12.05;8.43;;;;;;;14.86;100.00;100190.75;5075941;28;20020;-86
2021/09/15 08:25:12;;;;;;;12.80;8.63;;;;;;;14.89;100.00;100189.78;5058133;28;20020;-86
2021/09/15 08:27:37;;;;;;;14.02;8.77;;;;;;;14.99;100.00;100187.63;5057913;28;20041;-86
2021/09/15 08:30:03;;;;;;;11.60;8.30;;;;;;;14.87;100.00;100189.84;5057803;28;20067;-86
2021/09/15 08:32:28;;;;;;;12.07;8.48;;;;;;;14.85;100.00;100189.06;5057820;28;20031;-86
2021/09/15 08:34:54;;;;;;;16.30;9.32;;;;;;;14.79;100.00;100189.31;5057631;28;20025;-86
2021/09/15 08:37:19;;;;;;;15.07;9.63;;;;;;;14.74;100.00;100186.03;5058666;28;20032;-86
2021/09/15 08:39:44;;;;;;;13.45;9.10;;;;;;;14.76;100.00;100184.22;5061242;28;20028;-86
2021/09/15 08:42:11;;;;;;;13.02;8.98;;;;;;;14.82;100.00;100191.78;5079660;28;20070;-85
2021/09/15 08:44:36;;;;;;;14.88;9.85;;;;;;;14.93;100.00;100189.59;5088611;28;20564;-85
2021/09/15 08:47:03;;;;;;;14.40;9.63;;;;;;;15.05;100.00;100187.34;5057728;28;20032;-86
2021/09/15 08:49:29;;;;;;;14.57;9.52;;;;;;;15.10;100.00;100188.00;5075946;28;20024;-85
2021/09/15 08:51:55;;;;;;;13.75;9.82;;;;;;;14.91;100.00;100196.63;5057882;28;20031;-86
2021/09/15 08:54:21;;;;;;;16.45;9.77;;;;;;;14.63;100.00;100190.84;5057803;28;20385;-86
2021/09/15 08:56:46;;;;;;;18.67;10.13;;;;;;;14.66;100.00;100190.72;5059608;28;20469;-86
2021/09/15 08:59:11;;;;;;;16.67;8.90;;;;;;;14.64;100.00;100187.31;5076190;28;20025;-86
2021/09/15 09:01:39;;;;;;;13.07;9.52;;;;;;;14.67;100.00;100184.59;5057637;28;20607;-87
2021/09/15 09:04:04;;;;;;;16.60;10.63;;;;;;;14.62;100.00;100187.38;5057948;28;20020;-86
2021/09/15 09:06:32;;;;;;;19.98;10.65;;;;;;;14.64;100.00;100182.94;5057232;28;20027;-85
2021/09/15 09:09:00;;;;;;;13.77;9.18;;;;;;;14.48;100.00;100182.69;5074909;28;20028;-85
2021/09/15 09:11:31;;;;;;;14.20;9.80;;;;;;;14.49;100.00;100179.16;5056918;28;20024;-85
2021/09/15 09:13:59;;;;;;;14.82;10.43;;;;;;;14.58;100.00;100177.97;5056935;28;20411;-85
2021/09/15 09:16:45;;;;;;;13.88;9.88;;;;;;;14.66;100.00;100182.91;5074658;28;20415;-85
2021/09/15 09:19:23;;;;;;;20.50;10.05;;;;;;;14.66;100.00;100175.06;5056720;28;20028;-84
2021/09/15 09:21:52;;;;;;;15.48;10.57;;;;;;;14.63;100.00;100169.97;5057194;28;20484;-85
2021/09/15 09:24:24;;;;;;;13.95;10.40;;;;;;;14.61;100.00;100174.41;5073947;28;20039;-85
2021/09/15 09:26:54;;;;;;;17.40;10.57;;;;;;;14.53;100.00;100168.63;5057391;28;20431;-85
2021/09/15 09:29:28;;;;;;;15.35;10.80;;;;;;;14.58;100.00;100170.16;5056864;28;20111;-85
2021/09/15 09:32:15;;;;;;;17.45;10.98;;;;;;;14.62;100.00;100166.50;5074562;28;20036;-85
2021/09/15 09:34:45;;;;;;;16.92;11.00;;;;;;;14.66;100.00;100173.31;5056416;28;20020;-85
2021/09/15 09:37:21;;;;;;;15.20;10.45;;;;;;;14.58;100.00;100164.09;5074622;28;20016;-85
2021/09/15 09:39:55;;;;;;;15.60;10.38;;;;;;;14.60;100.00;100164.88;5056755;28;20066;-86
2021/09/15 09:42:23;;;;;;;20.30;11.27;;;;;;;14.56;100.00;100163.28;5074525;28;20438;-85
2021/09/15 09:45:08;;;;;;;19.20;11.75;;;;;;;14.60;100.00;100151.84;5056318;28;20068;-85
2021/09/15 09:47:35;;;;;;;17.83;11.38;;;;;;;14.74;100.00;100157.31;5056878;28;20028;-86
2021/09/15 09:50:13;;;;;;;15.77;11.25;;;;;;;14.97;100.00;100151.13;5056207;28;20127;-86
2021/09/15 09:53:00;;;;;;;16.33;10.88;;;;;;;14.86;100.00;100148.97;5056403;28;20027;-86
2021/09/15 09:55:27;;;;;;;18.98;11.18;;;;;;;14.78;100.00;100148.47;5056591;28;20021;-86
2021/09/15 09:57:54;;;;;;;18.90;11.65;;;;;;;14.74;100.00;100139.88;5056842;28;20082;-86
2021/09/15 10:00:21;;;;;;;18.83;12.07;;;;;;;14.73;100.00;100137.34;5056277;28;20039;-85
2021/09/15 10:02:47;;;;;;;16.65;11.32;;;;;;;14.69;100.00;100133.19;5056015;28;20078;-85
2021/09/15 10:05:18;;;;;;;17.58;11.05;;;;;;;14.69;100.00;100141.00;5056067;28;20115;-86
2021/09/15 10:07:45;;;;;;;17.75;11.48;;;;;;;14.80;100.00;100132.72;5056132;28;20035;-84
2021/09/15 10:10:12;;;;;;;16.58;11.50;;;;;;;14.75;100.00;100130.31;5108922;22;20423;-88
2021/09/15 10:12:38;;;;;;;16.85;11.73;;;;;;;14.92;100.00;100119.97;5092419;28;20028;-88
2021/09/15 10:15:06;;;;;;;16.23;11.27;;;;;;;15.04;100.00;100116.00;5092454;28;20054;-88
2021/09/15 10:17:35;;;;;;;15.35;11.23;;;;;;;15.14;100.00;100121.66;5092458;28;20020;-88
2021/09/15 10:20:01;;;;;;;16.58;10.68;;;;;;;15.07;100.00;100117.63;5092571;28;20463;-88
2021/09/15 10:22:31;;;;;;;14.98;11.35;;;;;;;15.11;100.00;100100.88;5092434;28;20038;-88
2021/09/15 10:25:07;;;;;;;14.40;11.30;;;;;;;15.07;100.00;100113.25;5093426;28;20032;-88
2021/09/15 10:27:59;;;;;;;18.02;11.43;;;;;;;15.10;100.00;100114.88;5092357;28;20028;-88
2021/09/15 10:30:51;;;;;;;15.55;11.73;;;;;;;15.10;100.00;100109.66;5092114;28;20020;-88
2021/09/15 10:33:35;;;;;;;19.23;12.70;;;;;;;15.06;100.00;100118.56;5092219;28;20058;-88
2021/09/15 10:36:00;;;;;;;16.20;12.07;;;;;;;15.07;100.00;100115.00;5091996;28;20438;-88
2021/09/15 10:38:52;;;;;;;16.42;12.18;;;;;;;15.13;100.00;100112.13;5092271;28;20024;-88
2021/09/15 10:41:42;;;;;;;15.05;11.48;;;;;;;15.14;100.00;100109.44;5093674;28;20016;-88
2021/09/15 10:44:15;;;;;;;14.70;10.68;;;;;;;14.89;100.00;100114.88;5092147;28;20024;-89
2021/09/15 10:46:43;;;;;;;20.60;13.43;;;;;;;15.03;100.00;100113.47;5091995;28;20035;-88
2021/09/15 10:49:39;;;;;;;17.33;12.15;;;;;;;15.06;100.00;100108.09;5091954;28;20020;-88
2021/09/15 10:52:07;;;;;;;16.00;10.43;;;;;;;15.02;100.00;100109.97;5092361;28;20426;-89
2021/09/15 10:54:46;;;;;;;16.73;12.60;;;;;;;14.98;100.00;100111.03;5092314;28;20020;-88
2021/09/15 10:57:17;;;;;;;15.90;12.05;;;;;;;15.09;100.00;100111.41;5092604;28;20036;-88
2021/09/15 10:59:51;;;;;;;16.58;11.32;;;;;;;15.02;100.00;100106.50;5092050;28;20036;-89
2021/09/15 11:02:31;;;;;;;16.60;11.47;;;;;;;15.13;100.00;100106.91;5093553;28;20468;-88
2021/09/15 11:05:25;;;;;;;17.98;12.52;;;;;;;15.17;100.00;100105.84;5093208;28;20032;-87
2021/09/15 11:07:50;;;;;;;19.88;12.75;;;;;;;15.27;100.00;100104.53;5093326;28;20028;-88
2021/09/15 11:10:33;;;;;;;18.50;14.97;;;;;;;15.20;100.00;100100.47;5091884;28;20036;-88
2021/09/15 11:12:59;;;;;;;20.08;13.65;;;;;;;15.29;100.00;100101.84;5093272;28;20024;-88
2021/09/15 11:15:46;;;;;;;19.33;14.52;;;;;;;15.36;100.00;100101.50;5091844;28;20098;-88